Erie International Tom Ridge Field
KERI : now visible

Aeroporto :











RITROVATECI SU...

 
LOGIN :

Iscrizione | Disclaimer

   EN    FR    IT 

 









Sommario :    VFR   VFR Marginale   IFR   IFR Intensivo   IFR Molto Intensivo
Visibilità : 
Base nubi : 
>= 8 km
>= 3000ft
5 / 8 km
1000 / 3000 ft
1500m / 5 km
500 / 1000 ft
800 / 1500m
200 / 500 ft
< 800m
< 200 ft
Simboli :   Temporali  Nebbia  Neve Forte  Precipitazioni Forti  Vento > 20 kt






- Altitudine del aeroporto : 733 ft
- Codice IATA : ERI


KERI - Erie International Tom Ridge Field

ULTIMO METAR :
  • 070051Z 32009G17KT 10SM FEW024 SCT034 OVC050 02/M03 A3024 RMK AO2 SNB13E33 SLP245 P0000 T00221033

METARs OBSOLETI :
  • 070032Z 34009G19KT 9SM -SN SCT029 BKN033 OVC050 02/M04 A3023 RMK AO2 SNB13 P0000 T00221039
  • 070024Z 33010G18KT 9SM -SN BKN029 BKN034 OVC048 02/M03 A3023 RMK AO2 SNB13 P0000 T00221033
  • 062351Z 32009KT 10SM FEW035 OVC050 02/M05 A3022 RMK AO2 SLP240 T00221050 10044 20017 51034
  • 062251Z 31005KT 10SM SCT035 OVC044 02/M05 A3020 RMK AO2 SLP234 T00221050

TAF KERI
Valido dal 07 a 00 ore il 08 a 00 ore UTC


062320Z 0700/0724 32011KT P6SM -SHSN BKN035
TEMPO 0700/0704 3SM -SHSN OVC030
FM070400 31010KT 3SM -SHSN OVC030
FM070800 29007KT P6SM BKN035
FM072200 VRB05KT P6SM SCT090 SCT250



MetMap, La meteo Aeronautica in un colpo d'occhio ! - Copyright ORBIFLY Dicembre 2007 - Disclaimer

ORBIFLY MET'MAP TEAM :

Programmazione e sviluppo : Alexandra Zaïnal
Concezione : Baudouin d'Aumeries
Aiuto per la programmazione : Marc-Olivier Méhu
Supporto tecnico e logistico : Manuel Goepfert
Aiuto per la traduzione : Arnaldo La Scala

Contatto : metmap@orbifly.com




FONTI E CREDITI :

   NOAA       Earth
Advisory